Time;durP1;ratioP1;P1;durP2;ratioP2;P2;SDS_P1;SDS_P2;PMS_P1;PMS_P2;Temp;Humidity;BMP_temperature;BMP_pressure;BME280_temperature;BME280_humidity;BME280_pressure;Samples;Min_cycle;Max_cycle;Signal;HPM_P1;HPM_P2
2023/08/06 00:09:13;;;;;;;12.85;3.85;;;;;;;;;;21001424;28;20521;-62
2023/08/06 00:19:14;;;;;;;10.23;2.35;;;;;;;;;;21000518;28;20055;-62
2023/08/06 00:29:15;;;;;;;9.75;2.55;;;;;;;;;;21000158;28;20045;-63
2023/08/06 00:39:16;;;;;;;9.18;2.42;;;;;;;;;;20999379;28;20040;-63
2023/08/06 00:49:17;;;;;;;8.98;2.38;;;;;;;;;;20998807;28;20044;-63
2023/08/06 00:59:19;;;;;;;7.93;3.25;;;;;;;;;;20998193;28;20119;-63
2023/08/06 01:09:39;;;;;;;7.13;2.55;;;;;;;;;;20997340;28;20055;-63
2023/08/06 01:19:40;;;;;;;5.68;2.05;;;;;;;;;;20997526;28;20047;-62
2023/08/06 01:29:44;;;;;;;6.85;1.75;;;;;;;;;;20995867;28;20044;-64
2023/08/06 01:39:45;;;;;;;7.28;1.95;;;;;;;;;;20995631;28;20055;-63
2023/08/06 01:49:46;;;;;;;9.15;2.33;;;;;;;;;;20996009;28;20068;-63
2023/08/06 01:59:47;;;;;;;5.57;1.55;;;;;;;;;;20995575;28;20052;-63
2023/08/06 02:09:48;;;;;;;3.45;1.58;;;;;;;;;;20994745;28;20057;-63
2023/08/06 02:19:49;;;;;;;3.80;1.15;;;;;;;;;;21005596;28;20037;-63
2023/08/06 02:29:50;;;;;;;5.30;1.27;;;;;;;;;;21009833;28;20045;-63
2023/08/06 02:39:51;;;;;;;2.80;1.20;;;;;;;;;;21009408;28;20398;-63
2023/08/06 02:49:52;;;;;;;4.68;1.10;;;;;;;;;;21007359;28;20044;-64
2023/08/06 02:59:54;;;;;;;2.80;1.10;;;;;;;;;;21007792;28;20044;-63
2023/08/06 03:09:55;;;;;;;3.33;1.42;;;;;;;;;;21006620;28;20052;-63
2023/08/06 03:19:56;;;;;;;4.50;1.20;;;;;;;;;;21006162;28;20055;-63
2023/08/06 03:29:57;;;;;;;2.45;0.90;;;;;;;;;;21005416;28;20047;-63
2023/08/06 03:39:58;;;;;;;3.97;0.90;;;;;;;;;;21004802;28;20048;-63
2023/08/06 03:49:59;;;;;;;2.42;1.17;;;;;;;;;;21002646;28;20037;-63
2023/08/06 04:00:00;;;;;;;2.20;0.98;;;;;;;;;;21001512;28;20051;-63
2023/08/06 04:10:03;;;;;;;2.92;1.20;;;;;;;;;;21001655;28;20500;-63
2023/08/06 04:20:04;;;;;;;3.78;1.00;;;;;;;;;;21000100;28;20054;-63
2023/08/06 04:30:05;;;;;;;3.70;1.00;;;;;;;;;;21000184;28;20047;-63
2023/08/06 04:40:07;;;;;;;2.38;0.82;;;;;;;;;;20999746;28;20040;-63
2023/08/06 04:50:08;;;;;;;4.90;1.00;;;;;;;;;;20999351;28;20044;-62
2023/08/06 05:00:09;;;;;;;2.50;0.95;;;;;;;;;;20997300;28;20090;-63
2023/08/06 05:10:10;;;;;;;1.30;0.70;;;;;;;;;;20997229;28;20459;-63
2023/08/06 05:20:12;;;;;;;2.15;0.90;;;;;;;;;;20997487;28;20509;-63
2023/08/06 05:30:13;;;;;;;2.45;1.00;;;;;;;;;;20996891;28;20040;-62
2023/08/06 05:40:14;;;;;;;1.25;0.88;;;;;;;;;;20996718;28;20045;-63
2023/08/06 05:50:15;;;;;;;5.07;0.90;;;;;;;;;;20999849;28;20047;-63
2023/08/06 06:00:16;;;;;;;1.85;0.80;;;;;;;;;;21012748;28;20429;-63
2023/08/06 06:10:18;;;;;;;6.28;0.90;;;;;;;;;;21011301;28;20045;-63
2023/08/06 06:20:19;;;;;;;2.42;0.77;;;;;;;;;;21009700;28;20048;-63
2023/08/06 06:30:20;;;;;;;3.53;0.60;;;;;;;;;;21010262;28;20045;-63
2023/08/06 06:40:21;;;;;;;3.92;0.70;;;;;;;;;;21009409;28;20044;-62
2023/08/06 06:50:22;;;;;;;2.28;0.77;;;;;;;;;;21008898;28;20044;-65
2023/08/06 07:00:23;;;;;;;1.60;0.70;;;;;;;;;;21007088;28;20040;-63
2023/08/06 07:10:24;;;;;;;1.90;0.65;;;;;;;;;;21005479;28;20056;-64
2023/08/06 07:20:25;;;;;;;3.28;0.77;;;;;;;;;;21006134;28;20048;-64
2023/08/06 07:30:26;;;;;;;2.75;0.77;;;;;;;;;;21005423;28;20048;-64
2023/08/06 07:40:28;;;;;;;2.78;0.80;;;;;;;;;;21004340;28;20135;-64
2023/08/06 07:50:29;;;;;;;2.63;0.68;;;;;;;;;;21001953;28;20084;-63
2023/08/06 08:00:30;;;;;;;3.03;0.88;;;;;;;;;;20941534;28;20040;-64
2023/08/06 08:10:32;;;;;;;2.85;0.55;;;;;;;;;;20918050;28;20167;-63
2023/08/06 08:20:35;;;;;;;2.40;0.75;;;;;;;;;;20916354;28;20045;-64
2023/08/06 08:30:36;;;;;;;1.60;0.73;;;;;;;;;;20917724;28;20517;-64
2023/08/06 08:40:40;;;;;;;2.22;0.70;;;;;;;;;;20915217;28;20044;-65
2023/08/06 08:50:41;;;;;;;2.08;0.75;;;;;;;;;;20915914;28;20076;-64
2023/08/06 09:00:43;;;;;;;1.50;0.50;;;;;;;;;;20914966;28;20389;-64
2023/08/06 09:10:44;;;;;;;1.67;0.90;;;;;;;;;;20914391;28;20049;-61
2023/08/06 09:20:45;;;;;;;1.63;0.55;;;;;;;;;;20912807;28;20056;-63
2023/08/06 09:30:48;;;;;;;2.47;0.82;;;;;;;;;;20913469;28;20126;-62
2023/08/06 09:40:49;;;;;;;3.22;0.95;;;;;;;;;;20913074;28;20048;-62
2023/08/06 09:50:52;;;;;;;2.70;0.68;;;;;;;;;;20911624;28;20045;-62
2023/08/06 10:00:53;;;;;;;4.05;1.13;;;;;;;;;;20912365;28;20061;-62
2023/08/06 10:10:54;;;;;;;2.55;0.85;;;;;;;;;;20911549;28;20049;-63
2023/08/06 10:20:55;;;;;;;2.58;0.60;;;;;;;;;;20910346;28;20070;-62
2023/08/06 10:30:57;;;;;;;4.25;1.52;;;;;;;;;;20911287;28;20134;-62
2023/08/06 10:40:58;;;;;;;2.08;0.85;;;;;;;;;;20921901;28;20063;-62
2023/08/06 10:51:01;;;;;;;3.28;0.88;;;;;;;;;;20925751;28;20052;-62
2023/08/06 11:01:02;;;;;;;3.20;0.93;;;;;;;;;;20924972;28;20476;-62
2023/08/06 11:11:15;;;;;;;2.70;1.23;;;;;;;;;;20922711;28;20060;-62
2023/08/06 11:21:20;;;;;;;2.13;0.90;;;;;;;;;;20922002;28;20052;-63
2023/08/06 11:31:22;;;;;;;3.55;1.25;;;;;;;;;;20943318;28;20037;-63
2023/08/06 11:41:23;;;;;;;3.28;1.10;;;;;;;;;;20996683;28;20501;-64
2023/08/06 11:51:27;;;;;;;5.97;1.40;;;;;;;;;;20998720;28;20043;-65
2023/08/06 12:01:28;;;;;;;4.53;1.55;;;;;;;;;;20993066;28;20051;-66
2023/08/06 12:11:29;;;;;;;4.85;1.23;;;;;;;;;;20999208;28;20057;-63
2023/08/06 12:21:30;;;;;;;2.28;1.38;;;;;;;;;;21001573;28;20098;-62
2023/08/06 12:31:32;;;;;;;2.35;1.30;;;;;;;;;;20999980;28;20044;-63
2023/08/06 12:41:33;;;;;;;3.60;1.40;;;;;;;;;;20999502;28;20055;-63
2023/08/06 12:51:34;;;;;;;2.15;1.13;;;;;;;;;;20998704;28;20048;-62
2023/08/06 13:01:35;;;;;;;3.00;1.85;;;;;;;;;;20997515;28;20398;-62
2023/08/06 13:11:37;;;;;;;5.28;2.00;;;;;;;;;;20997921;28;20402;-63
2023/08/06 13:21:41;;;;;;;5.70;1.23;;;;;;;;;;20996831;28;20121;-62
2023/08/06 13:31:42;;;;;;;10.32;4.95;;;;;;;;;;20995429;28;20048;-62
2023/08/06 13:41:44;;;;;;;4.82;1.55;;;;;;;;;;20996191;28;20086;-62
2023/08/06 13:51:45;;;;;;;6.07;1.65;;;;;;;;;;20994788;28;20048;-62
2023/08/06 14:01:46;;;;;;;2.28;1.45;;;;;;;;;;20995665;28;20090;-62
2023/08/06 14:11:47;;;;;;;4.78;1.60;;;;;;;;;;20998630;28;20057;-62
2023/08/06 14:21:48;;;;;;;5.32;1.42;;;;;;;;;;21009704;28;20044;-63
2023/08/06 14:31:50;;;;;;;2.47;1.20;;;;;;;;;;21009815;28;20074;-62
2023/08/06 14:41:51;;;;;;;7.72;1.30;;;;;;;;;;21008921;28;20048;-63
2023/08/06 14:51:52;;;;;;;5.90;1.63;;;;;;;;;;21008025;28;20051;-63
2023/08/06 15:01:53;;;;;;;3.45;1.00;;;;;;;;;;21007300;28;20074;-63
2023/08/06 15:11:54;;;;;;;6.13;3.55;;;;;;;;;;21005904;28;20464;-62
2023/08/06 15:21:55;;;;;;;5.70;1.70;;;;;;;;;;21005454;28;20478;-63
2023/08/06 15:31:56;;;;;;;6.38;1.60;;;;;;;;;;21003619;28;20084;-63
2023/08/06 15:41:58;;;;;;;3.95;1.65;;;;;;;;;;21004285;28;20097;-63
2023/08/06 15:51:59;;;;;;;5.18;1.42;;;;;;;;;;21002190;28;20041;-63
2023/08/06 16:02:02;;;;;;;6.45;1.80;;;;;;;;;;21002424;28;20087;-63
2023/08/06 16:12:03;;;;;;;5.22;1.65;;;;;;;;;;21000650;28;20109;-62
2023/08/06 16:22:04;;;;;;;6.07;1.67;;;;;;;;;;21000719;28;20502;-62
2023/08/06 16:32:06;;;;;;;5.40;1.15;;;;;;;;;;20997582;28;20089;-62
2023/08/06 16:42:07;;;;;;;3.03;1.10;;;;;;;;;;20997493;28;20170;-61
2023/08/06 16:52:08;;;;;;;3.85;1.27;;;;;;;;;;20996984;28;20041;-63
2023/08/06 17:02:09;;;;;;;2.38;1.17;;;;;;;;;;20997414;28;20207;-62
2023/08/06 17:12:10;;;;;;;4.18;1.00;;;;;;;;;;20959711;28;20045;-63
2023/08/06 17:22:12;;;;;;;2.92;0.95;;;;;;;;;;20908676;28;20067;-62
2023/08/06 17:32:14;;;;;;;3.58;1.17;;;;;;;;;;20908720;28;20056;-62
2023/08/06 17:42:15;;;;;;;2.60;0.98;;;;;;;;;;20903443;28;20037;-63
2023/08/06 17:52:16;;;;;;;3.15;1.17;;;;;;;;;;20919274;28;20045;-62
2023/08/06 18:02:17;;;;;;;3.00;0.90;;;;;;;;;;20925341;28;20044;-62
2023/08/06 18:12:18;;;;;;;3.63;1.00;;;;;;;;;;20927076;28;20568;-63
2023/08/06 18:22:19;;;;;;;1.88;0.95;;;;;;;;;;20927612;28;20494;-62
2023/08/06 18:32:20;;;;;;;3.08;0.65;;;;;;;;;;20925610;28;20048;-62
2023/08/06 18:42:21;;;;;;;1.80;1.02;;;;;;;;;;20924345;28;20036;-64
2023/08/06 18:52:22;;;;;;;2.45;1.58;;;;;;;;;;20924946;28;20041;-63
2023/08/06 19:02:24;;;;;;;3.25;1.45;;;;;;;;;;20922977;28;20045;-63
2023/08/06 19:12:25;;;;;;;1.85;1.10;;;;;;;;;;20923616;28;20061;-62
2023/08/06 19:22:26;;;;;;;2.60;1.42;;;;;;;;;;20923624;28;20536;-64
2023/08/06 19:32:27;;;;;;;4.72;1.60;;;;;;;;;;20922494;28;20044;-62
2023/08/06 19:42:28;;;;;;;1.85;1.10;;;;;;;;;;20921775;28;20037;-64
2023/08/06 19:52:29;;;;;;;5.15;1.58;;;;;;;;;;20921399;28;20509;-63
2023/08/06 20:02:30;;;;;;;4.82;3.55;;;;;;;;;;20920459;28;20041;-62
2023/08/06 20:12:31;;;;;;;2.55;1.38;;;;;;;;;;20918122;28;20091;-62
2023/08/06 20:22:33;;;;;;;5.30;1.75;;;;;;;;;;20918387;28;20040;-63
2023/08/06 20:32:34;;;;;;;2.70;1.33;;;;;;;;;;20918055;28;20448;-64
2023/08/06 20:42:35;;;;;;;1.73;1.20;;;;;;;;;;20916391;28;20483;-62
2023/08/06 20:52:36;;;;;;;4.03;1.23;;;;;;;;;;20916130;28;20048;-62
2023/08/06 21:02:37;;;;;;;2.70;0.93;;;;;;;;;;20915921;28;20048;-62
2023/08/06 21:12:38;;;;;;;1.85;1.00;;;;;;;;;;20914287;28;20065;-62
2023/08/06 21:22:39;;;;;;;6.32;1.02;;;;;;;;;;20914832;28;20044;-62
2023/08/06 21:32:41;;;;;;;2.30;0.85;;;;;;;;;;20914219;28;20045;-62
2023/08/06 21:42:45;;;;;;;1.75;0.98;;;;;;;;;;20913725;28;20063;-62
2023/08/06 21:52:46;;;;;;;1.33;0.75;;;;;;;;;;20913298;28;20406;-63
2023/08/06 22:02:47;;;;;;;3.17;1.20;;;;;;;;;;20912578;28;20049;-63
2023/08/06 22:12:48;;;;;;;3.03;1.10;;;;;;;;;;20911627;28;20049;-62
2023/08/06 22:22:49;;;;;;;4.65;1.23;;;;;;;;;;20911819;28;20060;-62
2023/08/06 22:32:50;;;;;;;5.75;1.35;;;;;;;;;;20916375;28;20055;-62
2023/08/06 22:42:52;;;;;;;3.78;1.10;;;;;;;;;;20925364;28;20041;-62
2023/08/06 22:52:53;;;;;;;5.22;1.35;;;;;;;;;;20925750;28;20179;-61
2023/08/06 23:02:54;;;;;;;2.90;1.00;;;;;;;;;;20924638;28;20051;-62
2023/08/06 23:12:55;;;;;;;5.15;1.17;;;;;;;;;;20922815;28;20041;-62
2023/08/06 23:22:57;;;;;;;5.82;1.60;;;;;;;;;;20922205;28;20061;-62
2023/08/06 23:32:58;;;;;;;2.42;1.13;;;;;;;;;;20922470;28;20529;-61
2023/08/06 23:42:59;;;;;;;2.45;0.95;;;;;;;;;;20921461;28;20511;-62
2023/08/06 23:53:00;;;;;;;5.22;1.23;;;;;;;;;;20919707;28;20069;-62
